Time;durP1;ratioP1;P1;durP2;ratioP2;P2;SDS_P1;SDS_P2;PMS_P1;PMS_P2;Temp;Humidity;BMP_temperature;BMP_pressure;BME280_temperature;BME280_humidity;BME280_pressure;Samples;Min_cycle;Max_cycle;Signal;HPM_P1;HPM_P2
2023/11/23 00:01:20;;;;;;;12.17;8.13;;;;;;;0.43;92.17;101645.75;5030962;28;20210;-74
2023/11/23 00:03:47;;;;;;;12.93;8.23;;;;;;;0.45;92.66;101641.13;5028043;28;20200;-74
2023/11/23 00:06:13;;;;;;;12.40;8.53;;;;;;;0.49;92.26;101629.25;5019680;28;20228;-74
2023/11/23 00:08:41;;;;;;;12.53;7.80;;;;;;;0.51;91.55;101627.19;5027852;28;20200;-74
2023/11/23 00:11:08;;;;;;;13.80;8.47;;;;;;;0.53;92.31;101627.75;5027327;28;20603;-74
2023/11/23 00:13:35;;;;;;;10.07;7.47;;;;;;;0.55;93.01;101624.91;5030644;28;20204;-74
2023/11/23 00:16:02;;;;;;;12.00;7.37;;;;;;;0.57;92.09;101613.25;5025294;28;20230;-74
2023/11/23 00:18:29;;;;;;;12.17;7.53;;;;;;;0.60;91.26;101599.81;5028698;28;20210;-74
2023/11/23 00:20:57;;;;;;;11.53;7.50;;;;;;;0.63;92.08;101601.16;5025627;28;20196;-74
2023/11/23 00:23:24;;;;;;;10.43;6.77;;;;;;;0.65;90.43;101609.50;5024848;28;20701;-74
2023/11/23 00:25:50;;;;;;;10.70;7.00;;;;;;;0.68;90.47;101609.03;5022959;28;20234;-74
2023/11/23 00:28:16;;;;;;;11.97;7.60;;;;;;;0.71;90.66;101598.94;5029232;28;20206;-73
2023/11/23 00:30:43;;;;;;;10.40;7.23;;;;;;;0.75;91.51;101592.25;5043940;28;20205;-74
2023/11/23 00:33:09;;;;;;;12.23;6.43;;;;;;;0.79;91.09;101588.16;5024355;28;20557;-75
2023/11/23 00:35:37;;;;;;;13.83;7.87;;;;;;;0.83;90.88;101562.50;5025862;28;20616;-74
2023/11/23 00:38:03;;;;;;;10.30;6.77;;;;;;;0.86;90.29;101549.00;5023242;28;20679;-74
2023/11/23 00:40:30;;;;;;;10.13;6.60;;;;;;;0.91;90.29;101562.88;5024187;28;20239;-73
2023/11/23 00:42:56;;;;;;;9.57;6.13;;;;;;;0.96;89.92;101567.34;5039627;28;20231;-74
2023/11/23 00:45:22;;;;;;;10.37;6.87;;;;;;;0.98;89.72;101562.69;5027240;28;20798;-71
2023/11/23 00:47:49;;;;;;;10.40;6.57;;;;;;;1.01;88.76;101578.63;5027205;28;20748;-74
2023/11/23 00:50:15;;;;;;;11.60;7.00;;;;;;;1.03;89.40;101573.97;5045197;28;20603;-73
2023/11/23 00:52:43;;;;;;;11.30;6.87;;;;;;;1.06;90.15;101575.31;5038179;28;20576;-74
2023/11/23 00:55:09;;;;;;;11.63;6.90;;;;;;;1.08;89.28;101561.03;5026983;28;20242;-73
2023/11/23 00:57:38;;;;;;;10.03;6.73;;;;;;;1.12;89.13;101553.53;5023265;28;20207;-74
2023/11/23 01:00:06;;;;;;;8.97;6.50;;;;;;;1.15;89.81;101545.28;5026966;28;20219;-74
2023/11/23 01:02:33;;;;;;;7.80;5.57;;;;;;;1.17;88.24;101541.41;5038008;28;20219;-74
2023/11/23 01:04:59;;;;;;;10.97;5.97;;;;;;;1.20;89.59;101527.91;5025782;28;20444;-74
2023/11/23 01:07:26;;;;;;;9.23;5.87;;;;;;;1.22;89.22;101510.25;5040057;28;20200;-73
2023/11/23 01:09:53;;;;;;;9.17;5.63;;;;;;;1.25;88.49;101495.97;5042267;28;20720;-74
2023/11/23 01:12:20;;;;;;;9.40;6.20;;;;;;;1.27;88.50;101493.91;5039976;28;20196;-73
2023/11/23 01:14:46;;;;;;;7.97;5.50;;;;;;;1.29;87.45;101489.25;5041540;28;20200;-73
2023/11/23 01:17:12;;;;;;;11.67;6.23;;;;;;;1.31;90.33;101487.97;5022137;28;20207;-73
2023/11/23 01:19:39;;;;;;;8.47;5.53;;;;;;;1.33;88.73;101480.72;5032094;28;20199;-74
2023/11/23 01:22:06;;;;;;;10.37;5.60;;;;;;;1.34;88.16;101482.31;5026623;28;20224;-74
2023/11/23 01:24:32;;;;;;;7.77;5.10;;;;;;;1.37;89.97;101484.44;5025065;28;20421;-74
2023/11/23 01:27:00;;;;;;;7.83;5.17;;;;;;;1.38;86.77;101483.41;5036195;28;20219;-73
2023/11/23 01:29:26;;;;;;;6.77;4.80;;;;;;;1.39;88.42;101477.16;5026881;28;20553;-74
2023/11/23 01:31:53;;;;;;;8.70;5.57;;;;;;;1.41;88.00;101454.28;5024031;28;20658;-74
2023/11/23 01:34:20;;;;;;;6.37;4.87;;;;;;;1.43;87.87;101439.22;5025652;28;20200;-73
2023/11/23 01:36:47;;;;;;;7.33;5.00;;;;;;;1.44;86.34;101438.19;5037597;28;20220;-74
2023/11/23 01:39:14;;;;;;;7.83;5.47;;;;;;;1.47;88.79;101431.69;5016165;28;20212;-73
2023/11/23 01:41:40;;;;;;;7.60;4.60;;;;;;;1.48;86.51;101431.47;5021532;28;20639;-73
2023/11/23 01:44:08;;;;;;;7.43;5.07;;;;;;;1.51;87.87;101435.41;5026047;28;20661;-73
2023/11/23 01:46:34;;;;;;;6.87;4.60;;;;;;;1.53;86.93;101438.53;5020659;28;20743;-73
2023/11/23 01:49:04;;;;;;;7.50;4.90;;;;;;;1.55;86.67;101447.66;5025168;28;20200;-73
2023/11/23 01:51:31;;;;;;;8.03;4.87;;;;;;;1.56;86.81;101445.84;5038046;28;20269;-74
2023/11/23 01:53:58;;;;;;;7.40;5.03;;;;;;;1.59;86.56;101440.16;5024199;28;20207;-74
2023/11/23 01:56:26;;;;;;;10.73;4.70;;;;;;;1.60;87.65;101426.09;5026571;28;20331;-72
2023/11/23 01:58:53;;;;;;;9.60;4.27;;;;;;;1.63;86.43;101423.00;5023794;28;20201;-74
2023/11/23 02:01:21;;;;;;;7.53;4.50;;;;;;;1.66;85.50;101436.31;5021989;28;20200;-72
2023/11/23 02:03:48;;;;;;;6.47;4.60;;;;;;;1.67;87.69;101437.88;5036564;28;20217;-74
2023/11/23 02:06:15;;;;;;;9.03;4.50;;;;;;;1.70;85.63;101447.81;5018548;28;20219;-72
2023/11/23 02:08:41;;;;;;;6.83;4.77;;;;;;;1.72;86.47;101426.75;5026500;28;20199;-73
2023/11/23 02:11:08;;;;;;;5.90;4.00;;;;;;;1.75;84.99;101421.03;5017157;28;20561;-74
2023/11/23 02:13:35;;;;;;;7.07;4.47;;;;;;;1.78;86.24;101420.56;5023899;28;20207;-74
2023/11/23 02:16:01;;;;;;;6.80;4.37;;;;;;;1.79;86.87;101412.50;5034621;28;20613;-73
2023/11/23 02:18:35;;;;;;;5.23;4.10;;;;;;;1.83;85.28;101402.38;5024555;28;20561;-74
2023/11/23 02:21:02;;;;;;;5.37;3.93;;;;;;;1.84;85.56;101396.94;5020264;28;20199;-73
2023/11/23 02:23:28;;;;;;;7.00;4.37;;;;;;;1.88;87.19;101387.56;5024114;28;20223;-72
2023/11/23 02:25:56;;;;;;;8.27;4.17;;;;;;;1.92;86.31;101377.47;5025173;28;20223;-73
2023/11/23 02:28:23;;;;;;;6.07;3.93;;;;;;;1.94;86.09;101364.97;5039514;28;20569;-73
2023/11/23 02:30:50;;;;;;;5.87;4.37;;;;;;;1.95;85.01;101356.91;5020899;28;20193;-73
2023/11/23 02:33:17;;;;;;;5.07;4.03;;;;;;;1.99;85.73;101363.19;5023958;28;20698;-72
2023/11/23 02:35:43;;;;;;;4.83;3.73;;;;;;;2.02;88.49;101356.72;5022883;28;20469;-73
2023/11/23 02:38:10;;;;;;;6.03;4.00;;;;;;;2.04;84.70;101344.19;5023062;28;20219;-73
2023/11/23 02:40:36;;;;;;;5.00;3.60;;;;;;;2.06;85.79;101344.72;5022221;28;20424;-73
2023/11/23 02:43:05;;;;;;;6.53;3.83;;;;;;;2.09;86.47;101347.66;5019841;28;20217;-73
2023/11/23 02:45:32;;;;;;;6.20;4.50;;;;;;;2.12;83.03;101330.69;5023859;28;20212;-73
2023/11/23 02:47:58;;;;;;;6.47;3.40;;;;;;;2.15;87.18;101338.81;5026125;28;20207;-73
2023/11/23 02:50:25;;;;;;;6.23;3.40;;;;;;;2.18;86.03;101335.69;5021704;28;20522;-73
2023/11/23 02:52:52;;;;;;;4.20;3.10;;;;;;;2.20;85.22;101335.44;5034988;28;20200;-73
2023/11/23 02:55:19;;;;;;;7.70;3.60;;;;;;;2.24;84.92;101323.50;5023711;28;20212;-72
2023/11/23 02:57:46;;;;;;;4.23;2.90;;;;;;;2.27;83.75;101328.97;5021603;28;20196;-73
2023/11/23 03:00:14;;;;;;;5.60;3.53;;;;;;;2.31;85.72;101317.03;5025561;28;20218;-73
2023/11/23 03:02:40;;;;;;;5.10;3.30;;;;;;;2.34;87.95;101323.56;5018178;28;20230;-74
2023/11/23 03:05:10;;;;;;;5.37;3.30;;;;;;;2.36;86.24;101321.47;5039291;28;20228;-72
2023/11/23 03:07:36;;;;;;;4.53;3.43;;;;;;;2.36;86.66;101314.44;5012364;28;20209;-73
2023/11/23 03:10:03;;;;;;;4.17;3.23;;;;;;;2.41;85.23;101314.47;5039528;28;20216;-74
2023/11/23 03:12:30;;;;;;;4.07;3.33;;;;;;;2.44;84.71;101303.53;5034581;28;20197;-74
2023/11/23 03:14:56;;;;;;;6.30;3.83;;;;;;;2.46;86.77;101298.06;5021763;28;20205;-74
2023/11/23 03:17:24;;;;;;;4.13;3.13;;;;;;;2.47;85.38;101303.03;5022577;28;20193;-73
2023/11/23 03:19:50;;;;;;;5.13;3.80;;;;;;;2.51;83.22;101298.88;5022221;28;20211;-73
2023/11/23 03:22:16;;;;;;;4.77;3.30;;;;;;;2.53;84.00;101283.75;5036936;28;20199;-73
2023/11/23 03:24:43;;;;;;;5.50;3.60;;;;;;;2.58;84.93;101280.38;5039667;28;20576;-73
2023/11/23 03:27:09;;;;;;;4.73;3.07;;;;;;;2.59;84.79;101287.94;5021352;28;20215;-73
2023/11/23 03:29:36;;;;;;;7.10;3.47;;;;;;;2.62;84.26;101278.84;5019957;28;20197;-73
2023/11/23 03:32:02;;;;;;;4.37;3.27;;;;;;;2.64;85.61;101266.34;5023730;28;20381;-73
2023/11/23 03:34:30;;;;;;;3.67;2.90;;;;;;;2.68;85.62;101270.78;5027578;28;20196;-73
2023/11/23 03:36:56;;;;;;;4.57;3.43;;;;;;;2.70;84.42;101268.69;5027974;28;20787;-73
2023/11/23 03:39:23;;;;;;;4.87;3.20;;;;;;;2.72;83.84;101258.00;5023856;28;20200;-73
2023/11/23 03:41:49;;;;;;;4.20;3.23;;;;;;;2.73;85.00;101262.19;5021563;28;20204;-73
2023/11/23 03:44:15;;;;;;;4.43;3.40;;;;;;;2.75;83.20;101254.91;5023841;28;20224;-73
2023/11/23 03:46:42;;;;;;;4.23;3.03;;;;;;;2.79;84.80;101248.09;5026295;28;20220;-73
2023/11/23 03:49:08;;;;;;;6.27;3.30;;;;;;;2.81;85.25;101246.81;5022030;28;20757;-73
2023/11/23 03:51:36;;;;;;;4.47;3.33;;;;;;;2.83;83.40;101229.09;5020917;28;20208;-73
2023/11/23 03:54:02;;;;;;;4.97;3.10;;;;;;;2.86;83.26;101227.81;5024145;28;20254;-73
2023/11/23 03:56:29;;;;;;;4.50;3.30;;;;;;;2.87;85.67;101250.22;5022604;28;20236;-73
2023/11/23 03:58:56;;;;;;;5.73;3.50;;;;;;;2.91;83.53;101262.47;5024645;28;20243;-72
2023/11/23 04:01:23;;;;;;;4.67;3.20;;;;;;;2.92;84.49;101248.44;5024656;28;20204;-73
2023/11/23 04:03:49;;;;;;;5.20;3.00;;;;;;;2.94;84.74;101248.13;5023281;28;21017;-73
2023/11/23 04:06:17;;;;;;;3.73;2.87;;;;;;;2.97;84.65;101253.66;5023529;28;20730;-73
2023/11/23 04:08:47;;;;;;;6.43;3.57;;;;;;;2.98;82.88;101246.59;5025278;28;20287;-73
2023/11/23 04:11:14;;;;;;;5.17;3.00;;;;;;;2.99;82.98;101235.09;5024385;28;20203;-73
2023/11/23 04:13:40;;;;;;;5.57;3.00;;;;;;;3.02;85.09;101234.59;5024055;28;20207;-73
2023/11/23 04:16:08;;;;;;;4.53;3.33;;;;;;;3.05;85.17;101224.44;5022269;28;20224;-73
2023/11/23 04:18:35;;;;;;;6.27;3.53;;;;;;;3.07;84.08;101217.13;5023631;28;20642;-72
2023/11/23 04:21:01;;;;;;;4.60;3.30;;;;;;;3.09;83.48;101217.66;5023094;28;20204;-72
2023/11/23 04:23:27;;;;;;;8.10;3.13;;;;;;;3.11;84.21;101231.22;5026534;28;20217;-73
2023/11/23 04:25:55;;;;;;;4.93;3.47;;;;;;;3.14;85.06;101209.81;5018958;28;20319;-73
2023/11/23 04:28:21;;;;;;;3.77;2.90;;;;;;;3.17;86.68;101214.50;5018621;28;20196;-72
2023/11/23 04:30:48;;;;;;;4.30;3.40;;;;;;;3.19;86.40;101211.66;5023481;28;20203;-73
2023/11/23 04:33:14;;;;;;;4.63;3.60;;;;;;;3.22;88.22;101198.84;5038306;28;20192;-73
2023/11/23 04:35:41;;;;;;;5.07;3.67;;;;;;;3.25;88.48;101192.31;5022433;28;20220;-73
2023/11/23 04:38:07;;;;;;;6.33;3.30;;;;;;;3.28;87.76;101186.59;5021860;28;20203;-73
2023/11/23 04:40:34;;;;;;;5.30;3.70;;;;;;;3.31;87.41;101184.25;5024367;28;20207;-73
2023/11/23 04:43:01;;;;;;;4.47;3.30;;;;;;;3.34;86.20;101175.09;5018686;28;20224;-73
2023/11/23 04:45:28;;;;;;;5.23;3.40;;;;;;;3.36;84.63;101163.34;5021841;28;20220;-73
2023/11/23 04:47:54;;;;;;;4.43;3.13;;;;;;;3.41;86.30;101175.59;5024136;28;20783;-73
2023/11/23 04:50:20;;;;;;;4.33;3.20;;;;;;;3.43;83.26;101169.06;5021009;28;20208;-73
2023/11/23 04:52:47;;;;;;;4.53;3.03;;;;;;;3.47;84.06;101159.69;5022701;28;20200;-73
2023/11/23 04:55:13;;;;;;;4.83;2.97;;;;;;;3.50;85.52;101159.16;5021771;28;20224;-73
2023/11/23 04:57:39;;;;;;;3.40;2.83;;;;;;;3.53;88.06;101160.47;5020858;28;20200;-73
2023/11/23 05:00:10;;;;;;;4.13;2.87;;;;;;;3.55;85.32;101167.00;5039104;28;20579;-73
2023/11/23 05:02:36;;;;;;;3.77;2.57;;;;;;;3.60;84.65;101171.41;5024344;28;20207;-72
2023/11/23 05:05:03;;;;;;;4.17;2.90;;;;;;;3.63;82.25;101176.09;5020868;28;20254;-72
2023/11/23 05:07:29;;;;;;;4.03;3.03;;;;;;;3.65;86.07;101174.00;5024127;28;20200;-72
2023/11/23 05:09:56;;;;;;;3.33;2.40;;;;;;;3.67;83.76;101180.53;5021925;28;20196;-73
2023/11/23 05:12:22;;;;;;;3.60;2.70;;;;;;;3.69;84.10;101170.59;5019782;28;20662;-73
2023/11/23 05:14:49;;;;;;;5.27;3.10;;;;;;;3.71;87.58;101165.91;5021840;28;20204;-73
2023/11/23 05:17:16;;;;;;;3.90;3.00;;;;;;;3.73;83.25;101173.47;5017138;28;20215;-72
2023/11/23 05:19:43;;;;;;;5.17;3.17;;;;;;;3.75;83.79;101161.72;5021031;28;20751;-72
2023/11/23 05:22:09;;;;;;;4.13;2.60;;;;;;;3.77;83.40;101164.03;5019386;28;20212;-73
2023/11/23 05:24:35;;;;;;;5.50;3.00;;;;;;;3.79;85.18;101147.06;5021621;28;20225;-73
2023/11/23 05:27:02;;;;;;;3.63;2.90;;;;;;;3.79;84.42;101141.84;5017030;28;20235;-73
2023/11/23 05:29:28;;;;;;;3.90;2.97;;;;;;;3.83;84.53;101137.66;5022970;28;20196;-72
2023/11/23 05:31:54;;;;;;;4.53;2.80;;;;;;;3.84;82.00;101141.06;5019478;28;20200;-73
2023/11/23 05:34:22;;;;;;;4.97;2.70;;;;;;;3.88;84.97;101126.41;5023851;28;20192;-73
2023/11/23 05:36:48;;;;;;;3.43;2.67;;;;;;;3.92;83.25;101132.66;5022191;28;20222;-72
2023/11/23 05:39:15;;;;;;;4.73;3.07;;;;;;;3.95;83.03;101132.13;5022130;28;20204;-73
2023/11/23 05:41:41;;;;;;;3.97;2.70;;;;;;;3.97;83.81;101143.88;5020988;28;20214;-73
2023/11/23 05:44:08;;;;;;;5.73;2.87;;;;;;;4.01;85.19;101137.06;5019182;28;20240;-73
2023/11/23 05:46:34;;;;;;;3.13;2.30;;;;;;;4.03;83.77;101144.59;5021240;28;20235;-73
2023/11/23 05:49:01;;;;;;;5.27;3.10;;;;;;;4.06;84.23;101134.44;5021719;28;20262;-72
2023/11/23 05:51:29;;;;;;;2.93;2.30;;;;;;;4.07;83.71;101140.41;5019459;28;20199;-73
2023/11/23 05:53:55;;;;;;;4.80;2.53;;;;;;;4.10;86.17;101143.28;5023110;28;20205;-73
2023/11/23 05:56:22;;;;;;;3.87;2.57;;;;;;;4.09;82.37;101141.72;5036812;28;20219;-73
2023/11/23 05:58:48;;;;;;;2.80;2.20;;;;;;;4.12;81.73;101132.56;5024485;28;20208;-73
2023/11/23 06:01:14;;;;;;;4.23;2.60;;;;;;;4.14;81.09;101136.47;5019826;28;20671;-72
2023/11/23 06:03:41;;;;;;;3.37;2.53;;;;;;;4.15;84.03;101127.56;5021035;28;20211;-73
2023/11/23 06:06:08;;;;;;;4.77;2.80;;;;;;;4.17;83.14;101133.31;5022904;28;20224;-73
2023/11/23 06:08:36;;;;;;;3.67;2.47;;;;;;;4.20;83.00;101121.56;5021390;28;20284;-72
2023/11/23 06:11:03;;;;;;;3.93;2.30;;;;;;;4.19;84.36;101128.59;5019519;28;20224;-73
2023/11/23 06:13:30;;;;;;;4.13;2.73;;;;;;;4.21;82.90;101125.72;5019427;28;20562;-73
2023/11/23 06:15:57;;;;;;;3.43;2.50;;;;;;;4.23;87.51;101121.00;5020604;28;20221;-73
2023/11/23 06:18:24;;;;;;;3.80;2.53;;;;;;;4.22;85.62;101101.94;5021475;28;20199;-73
2023/11/23 06:20:51;;;;;;;3.20;2.53;;;;;;;4.24;87.18;101107.66;5021192;28;20212;-73
2023/11/23 06:23:17;;;;;;;5.27;2.50;;;;;;;4.26;86.15;101102.94;5017853;28;20299;-72
2023/11/23 06:25:45;;;;;;;4.73;3.00;;;;;;;4.28;85.45;101110.50;5018874;28;20214;-73
2023/11/23 06:28:11;;;;;;;4.63;2.70;;;;;;;4.28;85.03;101095.63;5019239;28;20680;-73
2023/11/23 06:30:37;;;;;;;4.47;2.97;;;;;;;4.32;84.89;101093.25;5021643;28;20707;-72
2023/11/23 06:33:04;;;;;;;4.03;2.50;;;;;;;4.34;86.03;101088.50;5019271;28;20207;-73
2023/11/23 06:35:30;;;;;;;4.97;2.90;;;;;;;4.34;85.15;101089.31;5020300;28;20228;-73
2023/11/23 06:37:57;;;;;;;4.27;3.10;;;;;;;4.35;84.55;101083.03;5017529;28;20626;-73
2023/11/23 06:40:24;;;;;;;6.03;2.77;;;;;;;4.36;85.40;101087.19;5018562;28;20274;-73
2023/11/23 06:42:51;;;;;;;3.40;2.80;;;;;;;4.36;85.31;101083.81;5020543;28;20215;-73
2023/11/23 06:45:18;;;;;;;3.23;2.37;;;;;;;4.38;87.79;101076.47;5018539;28;20307;-73
2023/11/23 06:47:44;;;;;;;3.50;2.30;;;;;;;4.38;87.83;101072.03;5019611;28;20276;-73
2023/11/23 06:50:11;;;;;;;3.47;2.73;;;;;;;4.39;88.44;101063.13;5022588;28;20207;-73
2023/11/23 06:52:37;;;;;;;3.57;2.43;;;;;;;4.39;84.52;101063.13;5018860;28;20764;-73
2023/11/23 06:55:05;;;;;;;4.03;2.67;;;;;;;4.40;84.26;101061.31;5035209;28;20226;-73
2023/11/23 06:57:32;;;;;;;3.80;2.53;;;;;;;4.42;84.10;101059.19;5023434;28;20192;-73
2023/11/23 07:00:06;;;;;;;3.73;2.60;;;;;;;4.43;84.01;101058.91;5021285;28;20308;-73
2023/11/23 07:02:37;;;;;;;4.70;3.10;;;;;;;4.45;84.56;101056.81;5022185;28;20607;-73
2023/11/23 07:05:03;;;;;;;3.53;2.60;;;;;;;4.48;85.60;101063.31;5019298;28;20229;-73
2023/11/23 07:07:32;;;;;;;4.63;2.90;;;;;;;4.50;84.74;101053.38;5026818;28;20556;-73
2023/11/23 07:09:58;;;;;;;3.77;3.00;;;;;;;4.52;84.47;101061.72;5027130;28;20280;-73
2023/11/23 07:12:26;;;;;;;5.47;2.87;;;;;;;4.55;84.94;101056.72;5028234;28;20759;-73
2023/11/23 07:14:52;;;;;;;4.13;2.80;;;;;;;4.58;85.84;101052.78;5027886;28;20258;-73
2023/11/23 07:17:20;;;;;;;3.20;2.33;;;;;;;4.60;84.03;101061.13;5026885;28;20207;-73
2023/11/23 07:19:47;;;;;;;5.10;2.83;;;;;;;4.63;84.41;101048.31;5031444;28;20215;-73
2023/11/23 07:22:13;;;;;;;4.13;2.67;;;;;;;4.64;84.95;101052.47;5029299;28;20561;-73
2023/11/23 07:24:40;;;;;;;4.07;2.73;;;;;;;4.69;85.63;101043.78;5027739;28;20213;-73
2023/11/23 07:27:06;;;;;;;4.30;2.80;;;;;;;4.70;85.14;101043.53;5024973;28;20215;-73
2023/11/23 07:29:33;;;;;;;3.83;2.50;;;;;;;4.76;85.80;101049.50;5028972;28;20721;-73
2023/11/23 07:31:59;;;;;;;4.03;2.70;;;;;;;4.79;87.45;101038.47;5030958;28;20621;-73
2023/11/23 07:34:28;;;;;;;3.27;2.60;;;;;;;4.82;84.49;101030.09;5031202;28;20235;-73
2023/11/23 07:36:55;;;;;;;4.47;2.90;;;;;;;4.85;84.89;101042.59;5028472;28;20227;-73
2023/11/23 07:39:22;;;;;;;8.23;2.87;;;;;;;4.89;87.01;101036.56;5024806;28;20225;-73
2023/11/23 07:41:48;;;;;;;5.50;2.80;;;;;;;4.90;84.83;101024.25;5029573;28;20278;-73
2023/11/23 07:44:15;;;;;;;3.43;2.50;;;;;;;4.93;85.49;101018.47;5029740;28;20216;-73
2023/11/23 07:46:41;;;;;;;3.73;2.50;;;;;;;4.94;86.88;101018.19;5024353;28;20282;-73
2023/11/23 07:49:07;;;;;;;5.10;2.73;;;;;;;4.97;85.62;101006.41;5020890;28;20200;-73
2023/11/23 07:51:35;;;;;;;7.83;2.57;;;;;;;5.01;87.28;101007.38;5026825;28;20202;-73
2023/11/23 07:54:02;;;;;;;3.13;2.23;;;;;;;5.01;86.45;101005.56;5043305;28;20452;-73
2023/11/23 07:56:29;;;;;;;5.40;2.50;;;;;;;5.02;85.17;101009.72;5027207;28;20211;-73
2023/11/23 07:58:55;;;;;;;4.67;2.50;;;;;;;5.05;86.02;101001.31;5027327;28;20282;-73
2023/11/23 08:01:21;;;;;;;7.10;3.03;;;;;;;5.09;88.30;100996.31;5024880;28;20203;-73
2023/11/23 08:03:48;;;;;;;2.90;2.20;;;;;;;5.11;87.90;101004.66;5026117;28;20200;-73
2023/11/23 08:06:14;;;;;;;5.33;3.10;;;;;;;5.14;85.26;100997.03;5022089;28;20216;-73
2023/11/23 08:08:42;;;;;;;7.93;3.00;;;;;;;5.17;85.42;100985.22;5027082;28;20293;-73
2023/11/23 08:11:09;;;;;;;6.07;3.30;;;;;;;5.21;87.07;100983.59;5025887;28;20199;-73
2023/11/23 08:13:36;;;;;;;5.00;3.17;;;;;;;5.24;88.85;100985.66;5026693;28;20196;-73
2023/11/23 08:16:04;;;;;;;3.90;2.67;;;;;;;5.26;88.34;100973.88;5023710;28;20310;-73
2023/11/23 08:18:30;;;;;;;3.30;2.60;;;;;;;5.31;88.07;100975.63;5041981;28;20624;-73
2023/11/23 08:20:58;;;;;;;3.73;2.30;;;;;;;5.34;87.64;100982.94;5024478;28;20203;-73
2023/11/23 08:23:25;;;;;;;4.93;2.93;;;;;;;5.37;88.77;100974.50;5024893;28;20960;-73
2023/11/23 08:25:53;;;;;;;3.23;2.50;;;;;;;5.41;88.12;100968.44;5025297;28;20215;-73
2023/11/23 08:28:19;;;;;;;5.13;3.33;;;;;;;5.44;89.50;100969.72;5027371;28;20192;-73
2023/11/23 08:30:47;;;;;;;3.83;2.80;;;;;;;5.49;88.07;100967.03;5023471;28;20196;-73
2023/11/23 08:33:13;;;;;;;5.03;3.13;;;;;;;5.51;87.54;100957.03;5026262;28;20238;-73
2023/11/23 08:35:40;;;;;;;4.00;2.90;;;;;;;5.54;87.79;100961.72;5024892;28;20636;-73
2023/11/23 08:38:06;;;;;;;3.50;2.53;;;;;;;5.56;89.06;100949.13;5025210;28;20200;-73
2023/11/23 08:40:32;;;;;;;4.53;2.43;;;;;;;5.60;91.18;100971.06;5027369;28;20204;-73
2023/11/23 08:43:00;;;;;;;4.37;2.63;;;;;;;5.63;88.68;100960.00;5021669;28;20219;-73
2023/11/23 08:45:26;;;;;;;4.10;3.00;;;;;;;5.67;89.11;100951.31;5020595;28;20232;-73
2023/11/23 08:47:53;;;;;;;5.40;2.83;;;;;;;5.71;89.01;100948.91;5025594;28;20196;-73
2023/11/23 08:50:19;;;;;;;4.57;3.57;;;;;;;5.75;89.29;100955.91;5026477;28;20273;-73
2023/11/23 08:52:46;;;;;;;3.90;2.90;;;;;;;5.79;89.86;100950.88;5026736;28;20204;-74
2023/11/23 08:55:13;;;;;;;4.03;3.30;;;;;;;5.83;90.63;100941.41;5022387;28;20212;-73
2023/11/23 08:57:40;;;;;;;3.37;2.60;;;;;;;5.87;88.64;100937.16;5025278;28;20223;-73
2023/11/23 09:00:11;;;;;;;4.50;3.40;;;;;;;5.89;88.57;100938.44;5027207;28;20203;-73
2023/11/23 09:02:38;;;;;;;4.00;3.30;;;;;;;5.93;89.24;100934.19;5027090;28;20223;-73
2023/11/23 09:05:06;;;;;;;3.60;3.00;;;;;;;5.95;87.64;100933.91;5026025;28;20230;-73
2023/11/23 09:07:32;;;;;;;4.47;3.23;;;;;;;5.99;88.58;100934.88;5022338;28;20223;-73
2023/11/23 09:09:59;;;;;;;8.33;4.30;;;;;;;6.02;89.26;100937.69;5021481;28;20291;-73
2023/11/23 09:12:27;;;;;;;5.23;3.03;;;;;;;6.09;90.94;100929.47;5022784;28;20200;-73
2023/11/23 09:14:56;;;;;;;5.73;3.37;;;;;;;6.13;88.70;100927.84;5023325;28;20204;-73
2023/11/23 09:17:24;;;;;;;4.80;2.90;;;;;;;6.18;90.32;100914.66;5025156;28;20288;-73
2023/11/23 09:19:50;;;;;;;4.77;3.20;;;;;;;6.20;90.86;100920.38;5023438;28;20215;-73
2023/11/23 09:22:17;;;;;;;5.53;4.10;;;;;;;6.25;90.49;100907.97;5024557;28;20208;-73
2023/11/23 09:24:43;;;;;;;4.67;3.07;;;;;;;6.27;91.10;100887.47;5026060;28;20684;-73
2023/11/23 09:27:10;;;;;;;3.60;2.93;;;;;;;6.29;88.99;100884.56;5023227;28;20197;-73
2023/11/23 09:29:37;;;;;;;7.57;3.13;;;;;;;6.33;91.15;100883.69;5024633;28;20212;-73
2023/11/23 09:32:05;;;;;;;3.37;2.97;;;;;;;6.34;89.94;100881.84;5025174;28;20208;-73
2023/11/23 09:34:32;;;;;;;7.17;3.33;;;;;;;6.37;89.26;100870.81;5021065;28;20207;-73
2023/11/23 09:36:59;;;;;;;6.87;2.80;;;;;;;6.43;90.41;100853.91;5022816;28;20713;-73
2023/11/23 09:39:25;;;;;;;4.90;3.20;;;;;;;6.47;89.85;100860.13;5024376;28;20254;-73
2023/11/23 09:41:53;;;;;;;5.10;3.50;;;;;;;6.51;90.28;100847.97;5023887;28;20199;-73
2023/11/23 09:44:20;;;;;;;4.27;3.07;;;;;;;6.54;89.43;100842.13;5023680;28;20378;-73
2023/11/23 09:46:49;;;;;;;7.43;3.43;;;;;;;6.58;89.11;100841.25;5018756;28;20219;-73
2023/11/23 09:49:18;;;;;;;5.37;3.27;;;;;;;6.64;88.11;100844.56;5021907;28;20210;-73
2023/11/23 09:51:49;;;;;;;5.37;3.73;;;;;;;6.67;90.26;100809.84;5037643;28;20287;-73
2023/11/23 09:54:18;;;;;;;3.87;3.13;;;;;;;6.71;88.99;100809.00;5021723;28;20568;-73
2023/11/23 09:56:46;;;;;;;5.07;3.57;;;;;;;6.75;89.96;100812.59;5023439;28;20951;-74
2023/11/23 09:59:13;;;;;;;4.33;3.27;;;;;;;6.77;88.11;100807.03;5022201;28;20196;-73
2023/11/23 10:01:44;;;;;;;7.23;3.20;;;;;;;6.76;88.43;100793.16;5024215;28;20660;-73
2023/11/23 10:04:11;;;;;;;3.90;3.10;;;;;;;6.80;85.94;100793.31;5022323;28;20623;-73
2023/11/23 10:06:37;;;;;;;4.00;2.77;;;;;;;6.83;89.47;100787.50;5026111;28;20229;-73
2023/11/23 10:09:09;;;;;;;5.93;3.30;;;;;;;6.84;89.96;100781.94;5023800;28;20189;-73
2023/11/23 10:11:36;;;;;;;4.87;3.10;;;;;;;6.86;89.04;100768.53;5024582;28;20262;-73
2023/11/23 10:14:02;;;;;;;5.30;3.20;;;;;;;6.85;87.98;100765.13;5021768;28;20193;-73
2023/11/23 10:16:31;;;;;;;5.50;3.90;;;;;;;6.86;86.17;100774.56;5025644;28;20726;-73
2023/11/23 10:18:58;;;;;;;4.93;3.27;;;;;;;6.89;88.87;100767.94;5023120;28;20256;-73
2023/11/23 10:21:24;;;;;;;6.03;3.37;;;;;;;6.87;89.24;100755.09;5019173;28;21082;-73
2023/11/23 10:23:51;;;;;;;5.20;3.23;;;;;;;6.87;88.40;100744.63;5024539;28;20198;-73
2023/11/23 10:26:18;;;;;;;4.93;3.67;;;;;;;6.87;86.20;100752.50;5024355;28;20229;-73
2023/11/23 10:28:45;;;;;;;3.33;3.00;;;;;;;6.86;88.41;100744.91;5022478;28;20214;-73
2023/11/23 10:31:12;;;;;;;3.90;2.70;;;;;;;6.87;85.64;100744.63;5023345;28;20197;-73
2023/11/23 10:33:38;;;;;;;4.50;3.40;;;;;;;6.89;86.39;100731.94;5023720;28;20207;-73
2023/11/23 10:36:06;;;;;;;3.73;2.80;;;;;;;6.92;88.81;100733.22;5022762;28;20219;-73
2023/11/23 10:38:37;;;;;;;6.07;3.50;;;;;;;6.90;87.88;100717.00;5023201;28;20204;-73
2023/11/23 10:41:06;;;;;;;4.17;2.90;;;;;;;6.93;86.56;100729.50;5023696;28;20202;-73
2023/11/23 10:43:36;;;;;;;4.93;2.77;;;;;;;6.94;86.22;100723.97;5028439;28;20255;-73
2023/11/23 10:46:06;;;;;;;3.03;2.67;;;;;;;6.96;86.72;100737.59;5025905;28;20228;-73
2023/11/23 10:48:33;;;;;;;3.90;2.63;;;;;;;6.96;89.20;100716.59;5030085;28;20200;-73
2023/11/23 10:51:02;;;;;;;3.77;2.90;;;;;;;6.98;88.25;100726.78;5024349;28;20210;-73
2023/11/23 10:53:30;;;;;;;5.93;3.10;;;;;;;6.99;88.40;100697.59;5024554;28;20202;-73
2023/11/23 10:55:59;;;;;;;4.63;3.20;;;;;;;7.04;90.57;100699.34;5025041;28;20226;-73
2023/11/23 10:58:27;;;;;;;5.27;2.80;;;;;;;7.05;89.35;100706.16;5025731;28;20235;-73
2023/11/23 11:00:57;;;;;;;4.00;3.00;;;;;;;7.08;89.98;100713.41;5027608;28;20682;-73
2023/11/23 11:03:24;;;;;;;5.77;3.20;;;;;;;7.07;86.77;100702.16;5030552;28;20206;-73
2023/11/23 11:05:53;;;;;;;3.97;3.30;;;;;;;7.12;90.38;100696.00;5028707;28;20228;-73
2023/11/23 11:08:20;;;;;;;4.33;2.80;;;;;;;7.13;87.48;100685.19;5027887;28;20665;-73
2023/11/23 11:10:50;;;;;;;4.43;3.00;;;;;;;7.14;88.47;100667.59;5025334;28;20734;-73
2023/11/23 11:13:18;;;;;;;4.90;3.40;;;;;;;7.16;87.12;100663.59;5025608;28;20750;-73
2023/11/23 11:15:52;;;;;;;4.47;3.10;;;;;;;7.20;89.13;100648.78;5030506;28;20220;-73
2023/11/23 11:18:25;;;;;;;3.93;3.17;;;;;;;7.22;87.08;100657.13;5029729;28;20203;-73
2023/11/23 11:21:07;;;;;;;6.03;2.80;;;;;;;7.24;88.83;100643.69;5044482;28;20296;-73
2023/11/23 11:23:38;;;;;;;6.03;3.63;;;;;;;7.25;87.44;100647.88;5025254;28;20194;-73
2023/11/23 11:26:10;;;;;;;4.13;3.00;;;;;;;7.26;87.09;100644.19;5026180;28;20221;-73
2023/11/23 11:28:37;;;;;;;4.53;3.40;;;;;;;7.27;88.34;100651.75;5026717;28;20204;-73
2023/11/23 11:31:05;;;;;;;3.03;2.70;;;;;;;7.29;88.11;100648.81;5031367;28;20206;-73